Sligo Airport - TAF
(Terminal Area Forecast)

Issued at 09:36 UTC on Sat. 26-May-18

--- METARS(SA) ---

METAR EISG(SLIGO) 260930Z 36004KT 320V030 CAVOK 17/12 Q1025 =

--- TAFS() ---

TAF EISG(SLIGO) 260800Z 2609/2618 27010KT 9999 FEW020 BECMG

2609/2610 08008KT =

--- SIGMETS(WS) ---

IE - No VALID SIGMETS/Warnings FOR THIS AREA

--- SIGMETS Volcanic(WV) ---

IE - No VALID SIGMETS/Warnings FOR THIS AREA

--- SIGMETS(WS) ---

EGTT SIGMET 01 VALID 260810/261110 EGRR- EGTT

LONDON FIR EMBD TS FCST WI N5125 E00127 - N5124 E00129 - N5200

E00030 - N5208 E00102 - N5140 E00203 - N5125 E00127 TOP FL320 MOV

NW 20KT NC=

Sligo Airport - METARs

Latest METARs for Sligo and Donegal Airports - updated every 30 mins